createdAt,value
2019-01-28T00:01:22.037Z,96832.42
2019-01-28T00:03:54.076Z,96821.97
2019-01-28T00:06:26.852Z,96817.91
2019-01-28T00:08:58.863Z,96811.13
2019-01-28T00:11:31.927Z,96812.12
2019-01-28T00:14:03.904Z,96813.14
2019-01-28T00:16:36.437Z,96802.84
2019-01-28T00:19:08.457Z,96806.36
2019-01-28T00:21:40.443Z,96808.75
2019-01-28T00:24:12.345Z,96802.52
2019-01-28T00:26:44.654Z,96794.45
2019-01-28T00:29:16.567Z,96793.97
2019-01-28T00:31:49.420Z,96793.08
2019-01-28T00:34:21.150Z,96784.59
2019-01-28T00:36:53.087Z,96774.20
2019-01-28T00:39:24.852Z,96766.22
2019-01-28T00:41:56.680Z,96777.02
2019-01-28T00:44:28.651Z,96769.77
2019-01-28T00:47:00.812Z,96763.03
2019-01-28T00:49:33.244Z,96769.13
2019-01-28T00:52:06.545Z,96770.43
2019-01-28T00:54:38.574Z,96770.43
2019-01-28T00:57:12.066Z,96775.17
2019-01-28T00:59:43.693Z,96776.23
2019-01-28T01:02:15.646Z,96779.82
2019-01-28T01:04:47.485Z,96782.17
2019-01-28T01:07:20.697Z,96784.91
2019-01-28T01:09:52.523Z,96782.69
2019-01-28T01:12:24.278Z,96781.44
2019-01-28T01:14:56.210Z,96777.75
2019-01-28T01:17:27.957Z,96778.58
2019-01-28T01:19:59.710Z,96775.66
2019-01-28T01:22:31.573Z,96776.87
2019-01-28T01:25:03.139Z,96778.23
2019-01-28T01:27:34.909Z,96791.74
2019-01-28T01:30:09.381Z,96780.11
2019-01-28T01:32:41.132Z,96780.77
2019-01-28T01:35:13.547Z,96769.92
2019-01-28T01:37:45.374Z,96762.26
2019-01-28T01:40:17.942Z,96756.26
2019-01-28T01:42:50.195Z,96761.57
2019-01-28T01:45:21.987Z,96758.77
2019-01-28T01:47:53.569Z,96761.13
2019-01-28T01:50:25.467Z,96758.90
2019-01-28T01:52:57.471Z,96752.03
2019-01-28T01:55:29.133Z,96746.19
2019-01-28T01:58:00.809Z,96741.52
2019-01-28T02:00:32.595Z,96742.73
2019-01-28T02:03:04.166Z,96737.21
2019-01-28T02:05:35.918Z,96743.33
2019-01-28T02:08:08.060Z,96724.98
2019-01-28T02:10:39.895Z,96728.14
2019-01-28T02:13:11.544Z,96722.58
2019-01-28T02:15:43.206Z,96706.73
2019-01-28T02:18:15.214Z,96701.56
2019-01-28T02:20:46.811Z,96704.12
2019-01-28T02:23:18.505Z,96698.59
2019-01-28T02:25:50.117Z,96684.28
2019-01-28T02:28:21.742Z,96680.27
2019-01-28T02:30:53.344Z,96680.81
2019-01-28T02:33:25.365Z,96671.86
2019-01-28T02:35:56.919Z,96668.02
2019-01-28T02:38:28.588Z,96656.64
2019-01-28T02:41:00.490Z,96655.25
2019-01-28T02:43:32.023Z,96653.81
2019-01-28T02:46:03.641Z,96652.84
2019-01-28T02:48:35.283Z,96647.55
2019-01-28T02:51:06.992Z,96642.41
2019-01-28T02:53:38.467Z,96651.56
2019-01-28T02:56:10.133Z,96653.91
2019-01-28T02:58:41.880Z,96646.21
2019-01-28T03:01:13.365Z,96646.72
2019-01-28T03:03:45.184Z,96643.95
2019-01-28T03:06:16.942Z,96651.27
2019-01-28T03:08:48.818Z,96643.33
2019-01-28T03:11:20.535Z,96632.06
2019-01-28T03:13:52.126Z,96634.03
2019-01-28T03:16:23.815Z,96633.92
2019-01-28T03:18:55.900Z,96632.92
2019-01-28T03:21:27.468Z,96625.80
2019-01-28T03:24:00.010Z,96630.05
2019-01-28T03:26:31.889Z,96620.05
2019-01-28T03:29:03.454Z,96621.31
2019-01-28T03:31:35.244Z,96613.57
2019-01-28T03:34:07.272Z,96612.02
2019-01-28T03:36:39.021Z,96612.28
2019-01-28T03:39:11.130Z,96612.82
2019-01-28T03:41:42.748Z,96612.17
2019-01-28T03:44:14.671Z,96609.17
2019-01-28T03:46:46.575Z,96598.95
2019-01-28T03:49:18.103Z,96600.98
2019-01-28T03:51:49.993Z,96589.50
2019-01-28T03:54:21.644Z,96580.47
2019-01-28T03:56:53.547Z,96580.59
2019-01-28T03:59:25.963Z,96578.78
2019-01-28T04:01:57.841Z,96592.42
2019-01-28T04:04:30.216Z,96590.90
2019-01-28T04:07:01.820Z,96586.02
2019-01-28T04:09:33.469Z,96582.16
2019-01-28T04:12:05.273Z,96587.08
2019-01-28T04:14:37.057Z,96579.77
2019-01-28T04:17:08.664Z,96579.41
2019-01-28T04:19:40.424Z,96572.33
2019-01-28T04:22:12.070Z,96568.12
2019-01-28T04:24:44.041Z,96568.98
2019-01-28T04:27:16.009Z,96580.84
2019-01-28T04:29:47.954Z,96577.95
2019-01-28T04:32:19.727Z,96577.38
2019-01-28T04:34:51.354Z,96576.91
2019-01-28T04:37:23.107Z,96573.52
2019-01-28T04:39:55.135Z,96571.78
2019-01-28T04:42:27.251Z,96565.69
2019-01-28T04:44:58.884Z,96560.84
2019-01-28T04:47:30.517Z,96570.14
2019-01-28T04:50:02.357Z,96562.21
2019-01-28T04:52:33.964Z,96562.48
2019-01-28T04:55:06.307Z,96552.78
2019-01-28T04:57:38.098Z,96553.82
2019-01-28T05:00:14.637Z,96553.33
2019-01-28T05:02:46.485Z,96543.48
2019-01-28T05:05:18.436Z,96556.45
2019-01-28T05:07:50.388Z,96549.70
2019-01-28T05:10:22.342Z,96552.44
2019-01-28T05:12:54.121Z,96562.36
2019-01-28T05:15:25.877Z,96557.30
2019-01-28T05:17:57.623Z,96548.02
2019-01-28T05:20:29.181Z,96551.39
2019-01-28T05:23:00.898Z,96552.29
2019-01-28T05:25:32.381Z,96549.02
2019-01-28T05:28:04.182Z,96550.63
2019-01-28T05:30:36.022Z,96541.92
2019-01-28T05:33:08.759Z,96535.77
2019-01-28T05:35:40.456Z,96535.50
2019-01-28T05:38:11.982Z,96537.12
2019-01-28T05:40:43.739Z,96547.50
2019-01-28T05:43:15.355Z,96553.52
2019-01-28T05:45:47.925Z,96552.36
2019-01-28T05:48:19.767Z,96568.23
2019-01-28T05:50:52.900Z,96570.93
2019-01-28T05:53:24.871Z,96574.86
2019-01-28T05:55:57.147Z,96580.44
2019-01-28T05:58:30.657Z,96584.62
2019-01-28T06:01:03.092Z,96564.67
2019-01-28T06:03:35.303Z,96569.97
2019-01-28T06:06:07.798Z,96569.55
2019-01-28T06:08:39.776Z,96560.64
2019-01-28T06:11:11.545Z,96553.80
2019-01-28T06:13:44.219Z,96545.42
2019-01-28T06:16:15.957Z,96564.09
2019-01-28T06:18:47.653Z,96574.96
2019-01-28T06:21:19.546Z,96574.56
2019-01-28T06:23:51.552Z,96575.95
2019-01-28T06:26:23.403Z,96575.37
2019-01-28T06:28:57.272Z,96582.61
2019-01-28T06:31:29.401Z,96584.51
2019-01-28T06:34:01.578Z,96581.70
2019-01-28T06:36:34.776Z,96581.60
2019-01-28T06:39:10.951Z,96585.80
2019-01-28T06:41:42.547Z,96596.56
2019-01-28T06:44:14.346Z,96601.78
2019-01-28T06:46:46.965Z,96603.25
2019-01-28T06:49:18.627Z,96605.75
2019-01-28T06:51:50.450Z,96607.73
2019-01-28T06:54:22.352Z,96620.34
2019-01-28T06:56:54.804Z,96619.56
2019-01-28T06:59:26.716Z,96617.22
2019-01-28T07:01:58.356Z,96607.30
2019-01-28T07:04:30.110Z,96610.86
2019-01-28T07:07:01.992Z,96606.31
2019-01-28T07:09:33.822Z,96606.73
2019-01-28T07:12:05.595Z,96593.63
2019-01-28T07:14:37.537Z,96601.47
2019-01-28T07:17:10.045Z,96597.23
2019-01-28T07:19:42.022Z,96591.00
2019-01-28T07:22:13.689Z,96595.08
2019-01-28T07:24:45.711Z,96596.84
2019-01-28T07:27:17.730Z,96591.36
2019-01-28T07:29:52.330Z,96593.64
2019-01-28T07:32:24.454Z,96597.94
2019-01-28T07:34:56.854Z,96601.36
2019-01-28T07:37:28.891Z,96605.77
2019-01-28T07:40:00.792Z,96601.78
2019-01-28T07:42:32.658Z,96598.98
2019-01-28T07:45:04.823Z,96610.32
2019-01-28T07:47:36.626Z,96614.90
2019-01-28T07:50:09.525Z,96623.24
2019-01-28T07:52:42.039Z,96615.22
2019-01-28T07:55:14.547Z,96616.56
2019-01-28T07:57:47.314Z,96610.72
2019-01-28T08:00:24.121Z,96622.41
2019-01-28T08:02:56.579Z,96619.88
2019-01-28T08:05:28.597Z,96624.70
2019-01-28T08:08:00.581Z,96629.67
2019-01-28T08:10:33.653Z,96630.94
2019-01-28T08:13:06.180Z,96635.34
2019-01-28T08:15:38.162Z,96634.39
2019-01-28T08:18:11.076Z,96623.09
2019-01-28T08:20:42.871Z,96627.77
2019-01-28T08:23:15.526Z,96614.47
2019-01-28T08:25:51.099Z,96616.48
2019-01-28T08:28:22.742Z,96616.41
2019-01-28T08:30:54.806Z,96632.03
2019-01-28T08:33:27.602Z,96637.31
2019-01-28T08:35:59.184Z,96635.71
2019-01-28T08:38:31.154Z,96634.05
2019-01-28T08:41:02.921Z,96635.75
2019-01-28T08:43:34.690Z,96632.73
2019-01-28T08:46:06.336Z,96636.39
2019-01-28T08:48:38.047Z,96637.03
2019-01-28T08:51:09.614Z,96630.45
2019-01-28T08:53:41.467Z,96633.98
2019-01-28T08:56:16.826Z,96634.86
2019-01-28T08:58:47.161Z,96636.62
2019-01-28T09:01:18.986Z,96633.31
2019-01-28T09:03:51.363Z,96639.37
2019-01-28T09:06:22.942Z,96634.98
2019-01-28T09:08:54.920Z,96640.02
2019-01-28T09:11:26.641Z,96635.92
2019-01-28T09:13:58.673Z,96633.36
2019-01-28T09:16:30.382Z,96638.13
2019-01-28T09:19:02.751Z,96633.41
2019-01-28T09:21:34.494Z,96630.05
2019-01-28T09:24:08.140Z,96628.84
2019-01-28T09:26:40.305Z,96629.89
2019-01-28T09:29:12.026Z,96629.30
2019-01-28T09:31:43.810Z,96636.82
2019-01-28T09:34:16.099Z,96640.91
2019-01-28T09:36:47.670Z,96637.49
2019-01-28T09:39:19.558Z,96650.92
2019-01-28T09:41:51.567Z,96649.26
2019-01-28T09:44:23.497Z,96657.41
2019-01-28T09:46:55.743Z,96648.12
2019-01-28T09:49:28.475Z,96648.76
2019-01-28T09:52:00.231Z,96645.77
2019-01-28T09:54:32.203Z,96646.33
2019-01-28T09:57:04.289Z,96655.03
2019-01-28T09:59:36.113Z,96656.13
2019-01-28T10:02:09.534Z,96647.85
2019-01-28T10:04:41.240Z,96653.16
2019-01-28T10:07:12.975Z,96651.22
2019-01-28T10:09:45.141Z,96653.91
2019-01-28T10:12:18.437Z,96653.36
2019-01-28T10:14:50.565Z,96644.77
2019-01-28T10:17:22.786Z,96645.99
2019-01-28T10:19:56.628Z,96647.73
2019-01-28T10:22:29.033Z,96649.73
2019-01-28T10:25:00.790Z,96645.55
2019-01-28T10:27:32.688Z,96638.15
2019-01-28T10:30:05.618Z,96642.61
2019-01-28T10:32:38.024Z,96643.04
2019-01-28T10:35:10.619Z,96640.53
2019-01-28T10:37:43.110Z,96638.19
2019-01-28T10:40:21.877Z,96645.13
2019-01-28T10:42:53.866Z,96635.30
2019-01-28T10:45:25.733Z,96637.12
2019-01-28T10:48:00.648Z,96638.95
2019-01-28T10:50:31.785Z,96625.95
2019-01-28T10:53:04.994Z,96616.41
2019-01-28T10:55:36.977Z,96613.00
2019-01-28T10:58:09.359Z,96610.72
2019-01-28T11:00:53.681Z,96610.38
2019-01-28T11:03:28.426Z,96607.13
2019-01-28T11:06:00.290Z,96605.12
2019-01-28T11:08:32.762Z,96602.36
2019-01-28T11:11:04.830Z,96597.95
2019-01-28T11:13:36.905Z,96600.23
2019-01-28T11:16:10.038Z,96595.59
2019-01-28T11:18:42.452Z,96596.44
2019-01-28T11:21:14.259Z,96591.28
2019-01-28T11:23:46.372Z,96585.50
2019-01-28T11:26:20.902Z,96584.03
2019-01-28T11:28:52.734Z,96574.03
2019-01-28T11:31:24.914Z,96576.50
2019-01-28T11:33:58.444Z,96575.91
2019-01-28T11:36:31.234Z,96565.28
2019-01-28T11:39:03.478Z,96566.39
2019-01-28T11:41:35.785Z,96563.11
2019-01-28T11:44:08.332Z,96569.34
2019-01-28T11:46:40.532Z,96563.23
2019-01-28T11:49:12.890Z,96558.52
2019-01-28T11:51:45.313Z,96555.78
2019-01-28T11:54:17.106Z,96548.26
2019-01-28T11:56:50.460Z,96548.37
2019-01-28T11:59:22.355Z,96548.77
2019-01-28T12:01:54.396Z,96550.38
2019-01-28T12:04:26.396Z,96551.13
2019-01-28T12:06:58.225Z,96542.11
2019-01-28T12:09:30.842Z,96545.75
2019-01-28T12:12:03.282Z,96545.28
2019-01-28T12:14:35.754Z,96533.86
2019-01-28T12:17:09.531Z,96532.60
2019-01-28T12:19:41.490Z,96525.03
2019-01-28T12:22:13.406Z,96514.75
2019-01-28T12:24:45.542Z,96519.05
2019-01-28T12:27:19.056Z,96524.52
2019-01-28T12:29:52.061Z,96520.66
2019-01-28T12:32:24.479Z,96519.05
2019-01-28T12:34:59.357Z,96522.74
2019-01-28T12:37:31.473Z,96526.97
2019-01-28T12:40:03.771Z,96521.48
2019-01-28T12:42:35.675Z,96507.12
2019-01-28T12:45:10.829Z,96516.75
2019-01-28T12:47:43.859Z,96530.48
2019-01-28T12:50:18.086Z,96530.38
2019-01-28T12:52:51.980Z,96540.82
2019-01-28T12:55:24.240Z,96542.95
2019-01-28T12:57:56.177Z,96547.14
2019-01-28T13:00:34.876Z,96548.22
2019-01-28T13:03:07.809Z,96552.67
2019-01-28T13:05:40.534Z,96558.14
2019-01-28T13:08:12.985Z,96561.34
2019-01-28T13:10:45.880Z,96564.29
2019-01-28T13:13:18.586Z,96560.08
2019-01-28T13:15:51.505Z,96566.78
2019-01-28T13:18:23.751Z,96580.11
2019-01-28T13:20:57.552Z,96578.23
2019-01-28T13:23:29.570Z,96573.07
2019-01-28T13:26:01.518Z,96593.22
2019-01-28T13:28:37.878Z,96598.94
2019-01-28T13:31:09.772Z,96601.89
2019-01-28T13:33:42.077Z,96595.84
2019-01-28T13:36:14.584Z,96605.78
2019-01-28T13:38:46.431Z,96617.52
2019-01-28T13:41:39.974Z,96616.50
2019-01-28T13:44:12.345Z,96629.59
2019-01-28T13:46:44.984Z,96630.63
2019-01-28T13:49:17.619Z,96633.55
2019-01-28T13:51:49.947Z,96644.20
2019-01-28T13:54:23.216Z,96651.91
2019-01-28T13:56:56.506Z,96664.83
2019-01-28T13:59:32.360Z,96675.94
2019-01-28T14:02:04.328Z,96682.63
2019-01-28T14:04:36.789Z,96688.41
2019-01-28T14:07:09.617Z,96705.42
2019-01-28T14:09:42.127Z,96708.91
2019-01-28T14:12:14.272Z,96713.53
2019-01-28T14:14:53.044Z,96729.42
2019-01-28T14:17:26.498Z,96728.05
2019-01-28T14:20:00.049Z,96733.53
2019-01-28T14:22:33.799Z,96736.08
2019-01-28T14:25:07.341Z,96735.66
2019-01-28T14:27:39.624Z,96738.80
2019-01-28T14:30:38.690Z,96735.53
2019-01-28T14:33:12.328Z,96728.28
2019-01-28T14:35:46.494Z,96716.81
2019-01-28T14:38:18.661Z,96711.60
2019-01-28T14:40:52.552Z,96711.22
2019-01-28T14:43:24.621Z,96719.39
2019-01-28T14:45:56.580Z,96736.30
2019-01-28T14:48:28.778Z,96737.36
2019-01-28T14:51:00.492Z,96749.05
2019-01-28T14:53:33.679Z,96760.83
2019-01-28T14:56:06.123Z,96764.08
2019-01-28T14:58:39.197Z,96762.00
2019-01-28T15:01:12.079Z,96773.61
2019-01-28T15:03:45.607Z,96776.66
2019-01-28T15:06:17.721Z,96783.06
2019-01-28T15:08:49.942Z,96792.06
2019-01-28T15:11:22.155Z,96797.69
2019-01-28T15:13:54.532Z,96812.12
2019-01-28T15:16:26.477Z,96820.86
2019-01-28T15:19:00.614Z,96833.80
2019-01-28T15:21:32.563Z,96824.77
2019-01-28T15:24:04.713Z,96822.25
2019-01-28T15:26:36.674Z,96829.78
2019-01-28T15:29:08.538Z,96824.72
2019-01-28T15:31:40.600Z,96832.70
2019-01-28T15:34:12.561Z,96836.38
2019-01-28T15:36:44.549Z,96837.31
2019-01-28T15:39:16.563Z,96845.56
2019-01-28T15:41:48.789Z,96857.62
2019-01-28T15:44:20.868Z,96856.72
2019-01-28T15:46:52.773Z,96867.38
2019-01-28T15:49:25.571Z,96860.75
2019-01-28T15:51:57.670Z,96859.14
2019-01-28T15:54:30.035Z,96867.99
2019-01-28T15:57:02.037Z,96870.59
2019-01-28T15:59:35.074Z,96866.09
2019-01-28T16:02:07.930Z,96864.69
2019-01-28T16:04:40.089Z,96863.93
2019-01-28T16:07:13.933Z,96863.86
2019-01-28T16:09:46.173Z,96862.95
2019-01-28T16:12:20.403Z,96867.45
2019-01-28T16:14:54.488Z,96872.73
2019-01-28T16:17:26.855Z,96874.20
2019-01-28T16:19:59.478Z,96868.07
2019-01-28T16:22:31.807Z,96872.65
2019-01-28T16:25:03.795Z,96877.92
2019-01-28T16:27:35.553Z,96884.03
2019-01-28T16:30:12.084Z,96888.83
2019-01-28T16:32:44.636Z,96887.97
2019-01-28T16:35:19.567Z,96890.03
2019-01-28T16:37:52.019Z,96884.76
2019-01-28T16:40:26.751Z,96895.27
2019-01-28T16:42:59.895Z,96896.25
2019-01-28T16:45:31.678Z,96900.19
2019-01-28T16:48:05.721Z,96898.31
2019-01-28T16:50:38.159Z,96904.06
2019-01-28T16:53:10.518Z,96918.30
2019-01-28T16:55:43.368Z,96919.92
2019-01-28T16:58:16.514Z,96916.53
2019-01-28T17:00:49.209Z,96921.06
2019-01-28T17:03:21.358Z,96927.18
2019-01-28T17:05:55.253Z,96930.37
2019-01-28T17:08:29.732Z,96938.49
2019-01-28T17:11:02.343Z,96926.95
2019-01-28T17:13:34.853Z,96924.26
2019-01-28T17:16:07.067Z,96932.28
2019-01-28T17:18:38.796Z,96938.88
2019-01-28T17:21:11.880Z,96927.13
2019-01-28T17:23:44.761Z,96930.30
2019-01-28T17:26:17.284Z,96942.05
2019-01-28T17:28:50.500Z,96936.30
2019-01-28T17:31:22.937Z,96937.47
2019-01-28T17:33:54.833Z,96942.73
2019-01-28T17:36:26.853Z,96941.34
2019-01-28T17:39:00.700Z,96946.97
2019-01-28T17:41:33.552Z,96959.36
2019-01-28T17:44:05.967Z,96953.02
2019-01-28T17:46:38.215Z,96959.61
2019-01-28T17:49:10.890Z,96953.94
2019-01-28T17:51:42.600Z,96949.86
2019-01-28T17:54:14.419Z,96953.36
2019-01-28T17:56:47.036Z,96953.48
2019-01-28T17:59:19.638Z,96960.22
2019-01-28T18:01:52.279Z,96956.07
2019-01-28T18:04:24.542Z,96956.53
2019-01-28T18:06:57.539Z,96961.10
2019-01-28T18:09:29.785Z,96962.92
2019-01-28T18:12:02.089Z,96966.41
2019-01-28T18:14:34.097Z,96972.39
2019-01-28T18:17:07.849Z,96974.59
2019-01-28T18:19:40.695Z,96976.27
2019-01-28T18:22:13.020Z,96984.05
2019-01-28T18:24:45.285Z,96982.92
2019-01-28T18:27:20.026Z,96976.72
2019-01-28T18:29:52.482Z,96976.58
2019-01-28T18:32:24.535Z,96982.73
2019-01-28T18:34:56.613Z,96982.42
2019-01-28T18:37:28.832Z,96989.17
2019-01-28T18:40:01.046Z,96986.19
2019-01-28T18:42:33.118Z,96989.59
2019-01-28T18:45:08.336Z,96998.77
2019-01-28T18:47:40.168Z,97001.62
2019-01-28T18:50:16.742Z,97010.03
2019-01-28T18:52:49.508Z,97012.69
2019-01-28T18:55:22.064Z,97017.53
2019-01-28T18:57:54.313Z,97015.11
2019-01-28T19:00:29.546Z,97020.36
2019-01-28T19:03:01.496Z,97018.96
2019-01-28T19:06:07.777Z,97016.90
2019-01-28T19:09:00.218Z,97020.06
2019-01-28T19:11:47.906Z,97020.02
2019-01-28T19:14:41.165Z,97021.41
2019-01-28T19:17:28.093Z,97022.36
2019-01-28T19:20:15.969Z,97026.16
2019-01-28T19:22:48.749Z,97034.84
2019-01-28T19:25:21.198Z,97033.02
2019-01-28T19:27:57.232Z,97044.81
2019-01-28T19:30:31.066Z,97046.48
2019-01-28T19:33:03.698Z,97049.41
2019-01-28T19:35:35.949Z,97050.69
2019-01-28T19:38:08.609Z,97052.87
2019-01-28T19:40:41.110Z,97046.44
2019-01-28T19:43:15.413Z,97055.27
2019-01-28T19:45:47.180Z,97058.86
2019-01-28T19:48:21.306Z,97071.45
2019-01-28T19:50:54.138Z,97069.61
2019-01-28T19:53:26.763Z,97071.09
2019-01-28T19:56:17.814Z,97061.81
2019-01-28T19:58:49.769Z,97069.91
2019-01-28T20:01:22.499Z,97074.86
2019-01-28T20:03:54.490Z,97081.95
2019-01-28T20:06:26.293Z,97093.73
2019-01-28T20:08:58.840Z,97094.84
2019-01-28T20:11:31.416Z,97098.15
2019-01-28T20:14:04.374Z,97099.98
2019-01-28T20:16:36.261Z,97105.87
2019-01-28T20:19:10.083Z,97104.00
2019-01-28T20:21:43.947Z,97113.00
2019-01-28T20:24:18.804Z,97117.97
2019-01-28T20:26:51.699Z,97117.80
2019-01-28T20:29:25.542Z,97121.17
2019-01-28T20:32:01.017Z,97127.44
2019-01-28T20:34:34.441Z,97132.41
2019-01-28T20:37:16.975Z,97136.19
2019-01-28T20:39:53.135Z,97138.66
2019-01-28T20:42:31.325Z,97139.12
2019-01-28T20:45:06.247Z,97138.02
2019-01-28T20:47:40.411Z,97139.58
2019-01-28T20:50:18.654Z,97132.05
2019-01-28T20:52:51.784Z,97133.60
2019-01-28T20:55:24.823Z,97139.58
2019-01-28T20:57:57.619Z,97143.91
2019-01-28T21:00:30.409Z,97145.84
2019-01-28T21:03:04.223Z,97147.93
2019-01-28T21:05:37.820Z,97144.26
2019-01-28T21:08:10.436Z,97150.87
2019-01-28T21:10:44.980Z,97148.88
2019-01-28T21:13:18.312Z,97149.77
2019-01-28T21:15:59.635Z,97147.03
2019-01-28T21:18:32.961Z,97145.89
2019-01-28T21:21:05.343Z,97141.61
2019-01-28T21:23:38.187Z,97143.02
2019-01-28T21:26:12.076Z,97145.55
2019-01-28T21:28:44.612Z,97154.14
2019-01-28T21:31:20.629Z,97145.50
2019-01-28T21:33:54.239Z,97151.02
2019-01-28T21:36:41.203Z,97154.33
2019-01-28T21:39:15.680Z,97156.71
2019-01-28T21:41:47.844Z,97166.44
2019-01-28T21:44:19.972Z,97166.73
2019-01-28T21:46:53.435Z,97159.77
2019-01-28T21:49:26.193Z,97166.64
2019-01-28T21:51:57.931Z,97163.81
2019-01-28T21:54:30.548Z,97162.52
2019-01-28T21:57:03.515Z,97166.24
2019-01-28T21:59:35.997Z,97163.31
2019-01-28T22:02:08.341Z,97170.09
2019-01-28T22:04:40.645Z,97168.01
2019-01-28T22:07:13.142Z,97167.33
2019-01-28T22:09:45.242Z,97166.67
2019-01-28T22:12:17.257Z,97171.70
2019-01-28T22:14:49.149Z,97174.22
2019-01-28T22:17:21.033Z,97181.72
2019-01-28T22:19:53.279Z,97184.17
2019-01-28T22:22:25.185Z,97178.34
2019-01-28T22:24:57.090Z,97181.77
2019-01-28T22:27:29.108Z,97170.31
2019-01-28T22:30:00.971Z,97178.28
2019-01-28T22:32:33.043Z,97177.45
2019-01-28T22:35:05.398Z,97183.70
2019-01-28T22:37:37.510Z,97178.16
2019-01-28T22:40:10.819Z,97186.11
2019-01-28T22:42:46.454Z,97182.32
2019-01-28T22:45:19.167Z,97191.17
2019-01-28T22:47:52.115Z,97194.12
2019-01-28T22:50:24.685Z,97203.42
2019-01-28T22:52:56.893Z,97196.13
2019-01-28T22:55:28.740Z,97201.53
2019-01-28T22:58:00.913Z,97206.37
2019-01-28T23:00:50.039Z,97213.62
2019-01-28T23:03:25.103Z,97215.87
2019-01-28T23:05:57.042Z,97222.19
2019-01-28T23:08:28.664Z,97232.88
2019-01-28T23:11:01.086Z,97234.91
2019-01-28T23:13:33.374Z,97241.83
2019-01-28T23:16:05.583Z,97249.81
2019-01-28T23:18:37.885Z,97244.34
2019-01-28T23:21:09.773Z,97246.70
2019-01-28T23:23:41.637Z,97248.31
2019-01-28T23:26:14.778Z,97247.56
2019-01-28T23:28:46.658Z,97248.38
2019-01-28T23:31:18.386Z,97255.00
2019-01-28T23:33:50.162Z,97256.52
2019-01-28T23:36:22.130Z,97253.06
2019-01-28T23:38:53.769Z,97246.25
2019-01-28T23:41:25.697Z,97245.69
2019-01-28T23:43:57.637Z,97244.11
2019-01-28T23:46:29.439Z,97244.20
2019-01-28T23:49:01.342Z,97247.98
2019-01-28T23:51:33.274Z,97244.23
2019-01-28T23:54:05.465Z,97239.12
2019-01-28T23:56:37.198Z,97235.59
2019-01-28T23:59:09.117Z,97235.45
